Time;durP1;ratioP1;P1;durP2;ratioP2;P2;SDS_P1;SDS_P2;PMS_P1;PMS_P2;Temp;Humidity;BMP_temperature;BMP_pressure;BME280_temperature;BME280_humidity;BME280_pressure;Samples;Min_cycle;Max_cycle;Signal;HPM_P1;HPM_P2
2023/01/04 00:00:31;;;;;;;9.55;3.20;;;7.90;99.90;;;;;;4973866;28;20046;-75
2023/01/04 00:02:57;;;;;;;7.57;2.92;;;7.90;99.90;;;;;;4967487;28;20060;-76
2023/01/04 00:05:22;;;;;;;6.30;3.53;;;8.00;99.90;;;;;;4974860;28;20044;-76
2023/01/04 00:07:48;;;;;;;6.13;3.63;;;7.90;99.90;;;;;;4974542;28;20481;-76
2023/01/04 00:10:13;;;;;;;6.45;3.10;;;7.90;99.90;;;;;;4974535;28;20043;-75
2023/01/04 00:12:39;;;;;;;9.60;4.38;;;7.90;99.90;;;;;;4973929;28;20416;-76
2023/01/04 00:15:05;;;;;;;8.40;4.05;;;7.90;99.90;;;;;;4968386;28;20041;-76
2023/01/04 00:17:31;;;;;;;8.52;4.07;;;7.80;99.90;;;;;;4990063;28;20595;-76
2023/01/04 00:19:56;;;;;;;8.68;4.20;;;7.80;99.90;;;;;;4974280;28;20050;-76
2023/01/04 00:22:22;;;;;;;11.30;4.47;;;7.70;99.90;;;;;;4979801;28;20038;-75
2023/01/04 00:24:47;;;;;;;6.60;3.60;;;7.70;99.90;;;;;;4974113;28;20160;-76
2023/01/04 00:27:13;;;;;;;9.10;4.85;;;7.70;99.90;;;;;;4972093;28;20101;-76
2023/01/04 00:29:38;;;;;;;7.13;3.80;;;7.70;99.90;;;;;;4983369;28;20049;-76
2023/01/04 00:32:04;;;;;;;8.93;4.57;;;7.60;99.90;;;;;;4972358;28;20042;-74
2023/01/04 00:34:29;;;;;;;11.07;4.75;;;7.60;99.90;;;;;;4973826;28;20396;-75
2023/01/04 00:36:55;;;;;;;7.63;4.28;;;7.60;99.90;;;;;;4974193;28;20663;-75
2023/01/04 00:39:21;;;;;;;10.48;4.63;;;7.50;99.90;;;;;;4973094;28;20054;-75
2023/01/04 00:41:49;;;;;;;11.82;4.53;;;7.50;99.90;;;;;;4986299;28;20069;-76
2023/01/04 00:44:15;;;;;;;11.65;4.40;;;7.50;99.90;;;;;;4985492;28;20038;-75
2023/01/04 00:46:43;;;;;;;7.65;4.63;;;7.40;99.90;;;;;;4973900;28;20046;-75
2023/01/04 00:49:10;;;;;;;9.48;5.43;;;7.50;99.90;;;;;;4973439;28;20042;-73
2023/01/04 00:51:37;;;;;;;8.02;4.95;;;7.40;99.90;;;;;;4977705;28;20077;-75
2023/01/04 00:54:05;;;;;;;9.30;5.78;;;7.40;99.90;;;;;;4968604;28;20034;-75
2023/01/04 00:56:32;;;;;;;8.25;5.07;;;7.40;99.90;;;;;;4989492;28;20053;-75
2023/01/04 00:59:00;;;;;;;8.60;4.93;;;7.40;99.90;;;;;;4971436;28;20038;-75
2023/01/04 01:01:27;;;;;;;7.50;5.00;;;7.40;99.90;;;;;;4972623;28;20027;-75
2023/01/04 01:03:54;;;;;;;7.25;5.18;;;7.40;99.90;;;;;;4969071;28;20061;-75
2023/01/04 01:06:20;;;;;;;9.27;5.45;;;7.40;99.90;;;;;;4973973;28;20045;-75
2023/01/04 01:08:46;;;;;;;11.18;5.22;;;7.40;99.90;;;;;;4973790;28;20121;-75
2023/01/04 01:11:11;;;;;;;11.30;5.05;;;7.40;99.90;;;;;;4973655;28;20166;-76
2023/01/04 01:13:38;;;;;;;8.98;5.80;;;7.50;99.90;;;;;;4973444;28;20407;-75
2023/01/04 01:16:06;;;;;;;11.52;5.60;;;7.40;99.90;;;;;;4970999;28;20034;-76
2023/01/04 01:18:33;;;;;;;10.88;5.22;;;7.50;99.90;;;;;;4981102;28;20046;-75
2023/01/04 01:20:59;;;;;;;12.25;5.80;;;7.50;99.90;;;;;;4957542;28;20046;-75
2023/01/04 01:23:24;;;;;;;10.93;5.53;;;7.50;99.90;;;;;;4981116;28;20403;-75
2023/01/04 01:25:50;;;;;;;7.40;5.20;;;7.50;99.90;;;;;;4971893;28;20104;-76
2023/01/04 01:28:15;;;;;;;11.32;4.97;;;7.50;99.90;;;;;;4977084;28;20093;-76
2023/01/04 01:30:42;;;;;;;9.63;5.70;;;7.50;99.90;;;;;;4975986;28;20050;-75
2023/01/04 01:33:09;;;;;;;7.63;5.47;;;7.50;99.90;;;;;;4975988;28;20543;-75
2023/01/04 01:35:35;;;;;;;9.15;5.72;;;7.60;99.90;;;;;;4967012;28;20039;-75
2023/01/04 01:38:01;;;;;;;10.23;5.93;;;7.50;99.90;;;;;;4969331;28;20278;-76
2023/01/04 01:40:28;;;;;;;10.57;5.57;;;7.60;99.90;;;;;;4970871;28;20038;-75
2023/01/04 01:42:54;;;;;;;10.90;5.97;;;7.50;99.90;;;;;;4974194;28;20076;-76
2023/01/04 01:45:32;;;;;;;7.90;4.90;;;7.60;99.90;;;;;;4993903;28;20455;-75
2023/01/04 01:48:04;;;;;;;11.27;5.70;;;7.60;99.90;;;;;;4974365;28;20721;-76
2023/01/04 01:50:38;;;;;;;6.07;4.93;;;7.60;99.90;;;;;;5008639;28;20468;-76
2023/01/04 01:53:06;;;;;;;9.35;5.40;;;7.60;99.90;;;;;;4992647;28;20049;-75
2023/01/04 01:55:34;;;;;;;8.30;5.35;;;7.60;99.90;;;;;;4977243;28;20600;-75
2023/01/04 01:58:00;;;;;;;8.80;5.72;;;7.60;99.90;;;;;;4984833;28;20039;-75
2023/01/04 02:00:28;;;;;;;11.38;5.35;;;7.70;99.90;;;;;;4976750;28;20042;-76
2023/01/04 02:02:59;;;;;;;9.05;4.78;;;7.60;99.90;;;;;;4967200;28;20046;-75
2023/01/04 02:05:27;;;;;;;7.53;5.10;;;7.70;99.90;;;;;;4977034;28;20396;-75
2023/01/04 02:07:53;;;;;;;7.63;5.13;;;7.70;99.90;;;;;;4992721;28;20129;-76
2023/01/04 02:10:19;;;;;;;8.60;4.70;;;7.70;99.90;;;;;;4976914;28;20046;-76
2023/01/04 02:12:46;;;;;;;6.20;4.05;;;7.70;99.90;;;;;;4975326;28;20093;-76
2023/01/04 02:15:12;;;;;;;5.65;3.90;;;7.80;99.90;;;;;;4988839;28;20038;-76
2023/01/04 02:18:15;;;;;;;8.20;4.80;;;7.80;99.90;;;;;;4992614;28;20096;-75
2023/01/04 02:20:49;;;;;;;6.05;4.40;;;7.90;99.90;;;;;;4970567;28;20240;-76
2023/01/04 02:23:33;;;;;;;5.30;4.20;;;7.90;99.90;;;;;;4968145;28;20038;-76
2023/01/04 02:26:23;;;;;;;7.13;4.63;;;7.90;99.90;;;;;;4990868;28;20053;-75
2023/01/04 02:29:20;;;;;;;8.75;4.50;;;7.90;99.90;;;;;;4972648;28;20042;-75
2023/01/04 02:31:56;;;;;;;6.15;4.15;;;7.90;99.90;;;;;;4967506;28;20065;-75
2023/01/04 02:34:24;;;;;;;4.90;4.00;;;7.90;99.90;;;;;;4970693;28;20127;-76
2023/01/04 02:36:53;;;;;;;8.05;4.80;;;8.00;99.90;;;;;;4997009;28;20034;-75
2023/01/04 02:39:57;;;;;;;7.22;4.22;;;8.00;99.90;;;;;;4969387;28;20416;-76
2023/01/04 02:45:34;;;;;;;5.07;4.28;;;8.10;99.90;;;;;;4986257;28;20068;-76
2023/01/04 02:50:55;;;;;;;8.40;4.72;;;8.10;99.90;;;;;;4991000;28;20050;-76
2023/01/04 02:53:27;;;;;;;6.72;5.00;;;8.20;99.90;;;;;;4970242;28;20069;-75
2023/01/04 02:56:09;;;;;;;5.82;4.45;;;8.20;99.90;;;;;;4975739;28;20038;-75
2023/01/04 02:58:55;;;;;;;7.43;4.95;;;8.30;99.90;;;;;;4975652;28;20038;-75
2023/01/04 03:07:35;;;;;;;5.00;4.45;;;8.30;99.90;;;;;;4991316;28;20081;-75
2023/01/04 03:10:19;;;;;;;5.63;4.95;;;8.40;99.90;;;;;;4975938;28;20046;-75
2023/01/04 03:12:53;;;;;;;5.95;4.25;;;8.40;99.90;;;;;;4992652;28;20034;-75
2023/01/04 03:15:27;;;;;;;5.63;4.82;;;8.50;99.90;;;;;;4968493;28;20038;-75
2023/01/04 03:17:58;;;;;;;6.32;5.10;;;8.50;99.90;;;;;;4973498;28;20586;-75
2023/01/04 03:20:28;;;;;;;6.35;5.05;;;8.50;99.90;;;;;;4974777;28;20038;-74
2023/01/04 03:43:08;;;;;;;6.07;5.28;;;8.90;99.90;;;;;;4990904;28;20049;-74
2023/01/04 03:49:39;;;;;;;6.45;5.45;;;9.00;99.90;;;;;;5021567;23;20359;-77
2023/01/04 03:52:07;;;;;;;7.68;6.30;;;9.00;99.90;;;;;;4995760;28;20037;-77
2023/01/04 03:54:39;;;;;;;7.63;6.13;;;9.10;99.90;;;;;;5003429;28;20033;-77
2023/01/04 03:57:07;;;;;;;6.20;5.60;;;9.10;99.90;;;;;;5015173;28;20507;-77
2023/01/04 03:59:39;;;;;;;7.53;6.40;;;9.10;99.90;;;;;;4984610;28;20038;-78
2023/01/04 04:02:09;;;;;;;6.93;6.22;;;9.10;99.90;;;;;;4977411;28;20372;-77
2023/01/04 04:10:03;;;;;;;9.82;6.78;;;9.30;99.90;;;;;;4992130;28;20052;-77
2023/01/04 04:12:28;;;;;;;8.35;7.10;;;9.20;99.90;;;;;;4959153;28;20060;-77
2023/01/04 04:14:55;;;;;;;8.55;7.32;;;9.20;99.90;;;;;;4991393;28;20563;-77
2023/01/04 04:17:20;;;;;;;7.43;6.63;;;9.20;99.90;;;;;;4994359;28;20124;-78
2023/01/04 04:19:46;;;;;;;7.43;6.72;;;9.30;99.90;;;;;;4986276;28;20543;-77
2023/01/04 04:22:11;;;;;;;8.13;7.32;;;9.30;99.90;;;;;;4981288;28;20038;-78
2023/01/04 04:24:37;;;;;;;8.27;7.47;;;9.40;99.90;;;;;;4978600;28;20046;-77
2023/01/04 04:27:03;;;;;;;8.63;7.30;;;9.40;99.90;;;;;;4992150;28;20046;-77
2023/01/04 04:29:28;;;;;;;8.27;7.38;;;9.40;99.90;;;;;;4987562;28;20551;-77
2023/01/04 04:31:54;;;;;;;7.93;7.03;;;9.40;99.90;;;;;;4978578;28;20447;-78
2023/01/04 04:34:19;;;;;;;10.80;8.20;;;9.40;99.90;;;;;;4991275;28;20034;-78
2023/01/04 04:36:45;;;;;;;8.65;7.75;;;9.40;99.90;;;;;;4994060;28;20484;-77
2023/01/04 04:39:11;;;;;;;11.43;8.40;;;9.50;99.90;;;;;;4993192;28;20058;-77
2023/01/04 04:41:37;;;;;;;11.25;9.02;;;9.50;99.90;;;;;;4994653;28;20046;-78
2023/01/04 04:44:08;;;;;;;11.40;9.10;;;9.50;99.90;;;;;;4994116;28;20443;-77
2023/01/04 04:46:33;;;;;;;10.70;8.50;;;9.50;99.90;;;;;;4986250;28;20467;-77
2023/01/04 04:48:59;;;;;;;10.63;8.77;;;9.60;99.90;;;;;;4983847;28;20038;-77
2023/01/04 04:51:25;;;;;;;10.20;9.10;;;9.60;99.90;;;;;;4985930;28;20041;-78
2023/01/04 04:53:51;;;;;;;11.88;9.07;;;9.60;99.90;;;;;;4977713;28;20089;-77
2023/01/04 04:56:16;;;;;;;10.75;9.35;;;9.60;99.90;;;;;;4978301;28;20045;-76
2023/01/04 04:58:42;;;;;;;11.52;9.75;;;9.60;99.90;;;;;;4994096;28;20040;-77
2023/01/04 05:01:07;;;;;;;12.80;10.05;;;9.60;99.90;;;;;;4978221;28;20487;-77
2023/01/04 05:03:33;;;;;;;10.57;9.45;;;9.60;99.90;;;;;;4993645;28;20050;-76
2023/01/04 05:05:59;;;;;;;12.70;10.13;;;9.70;99.90;;;;;;4995573;28;20128;-77
2023/01/04 05:08:25;;;;;;;13.48;10.38;;;9.70;99.90;;;;;;4997304;28;20466;-76
2023/01/04 05:10:50;;;;;;;13.55;10.35;;;9.70;99.90;;;;;;4990630;28;20049;-76
2023/01/04 05:13:16;;;;;;;13.50;10.52;;;9.80;99.90;;;;;;4996704;28;20038;-77
2023/01/04 05:15:48;;;;;;;12.43;10.77;;;9.80;99.90;;;;;;4980968;28;20094;-76
2023/01/04 05:18:15;;;;;;;13.68;11.07;;;9.80;99.90;;;;;;4997035;28;20038;-76
2023/01/04 05:20:41;;;;;;;11.43;10.10;;;9.80;99.90;;;;;;4981267;28;20092;-76
2023/01/04 05:23:09;;;;;;;16.23;11.13;;;9.90;99.90;;;;;;4997084;28;20046;-76
2023/01/04 05:25:34;;;;;;;11.73;10.20;;;9.90;99.90;;;;;;4983180;28;20042;-77
2023/01/04 05:28:01;;;;;;;12.00;10.30;;;9.90;99.90;;;;;;4994563;28;20040;-78
2023/01/04 05:33:11;;;;;;;13.00;10.52;;;10.00;99.90;;;;;;4997294;28;20065;-77
2023/01/04 05:35:36;;;;;;;14.57;11.05;;;10.10;99.90;;;;;;4979315;28;20364;-77
2023/01/04 05:38:02;;;;;;;13.30;10.60;;;10.10;99.90;;;;;;4997544;28;20034;-77
2023/01/04 05:40:28;;;;;;;12.13;10.50;;;10.10;99.90;;;;;;4998905;28;20053;-77
2023/01/04 05:42:53;;;;;;;13.13;10.55;;;10.10;99.90;;;;;;4997285;28;20046;-77
2023/01/04 05:45:20;;;;;;;11.05;9.13;;;10.10;99.90;;;;;;4996188;28;20133;-77
2023/01/04 05:47:49;;;;;;;11.57;9.55;;;10.20;99.90;;;;;;4981234;28;20114;-76
2023/01/04 05:50:15;;;;;;;12.00;9.48;;;10.20;99.90;;;;;;4978618;28;20043;-77
2023/01/04 05:52:42;;;;;;;11.38;9.07;;;10.20;99.90;;;;;;4978533;28;20035;-77
2023/01/04 05:55:08;;;;;;;13.20;8.60;;;10.20;99.90;;;;;;4993415;28;20034;-78
2023/01/04 05:57:36;;;;;;;11.63;8.90;;;10.20;99.90;;;;;;4981188;28;20046;-77
2023/01/04 06:00:04;;;;;;;10.02;7.80;;;10.20;99.90;;;;;;4997541;28;20059;-77
2023/01/04 06:02:30;;;;;;;10.25;8.20;;;10.30;99.90;;;;;;4995251;28;20669;-77
2023/01/04 06:04:56;;;;;;;11.82;7.88;;;10.30;99.90;;;;;;4980739;28;20535;-77
2023/01/04 06:07:23;;;;;;;11.05;7.97;;;10.30;99.90;;;;;;4997167;28;20041;-77
2023/01/04 06:09:48;;;;;;;7.78;6.95;;;10.30;99.90;;;;;;4979327;28;20392;-77
2023/01/04 06:12:14;;;;;;;10.70;7.57;;;10.30;99.90;;;;;;4994055;28;20050;-76
2023/01/04 06:14:40;;;;;;;10.43;7.57;;;10.30;99.90;;;;;;4996780;28;20044;-77
2023/01/04 06:17:07;;;;;;;9.25;6.65;;;10.30;99.90;;;;;;4980187;28;20136;-76
2023/01/04 06:19:33;;;;;;;7.78;6.03;;;10.30;99.90;;;;;;4996615;28;20041;-76
2023/01/04 06:21:59;;;;;;;9.65;5.78;;;10.40;99.90;;;;;;4996849;28;20052;-76
2023/01/04 06:24:25;;;;;;;8.23;5.57;;;10.40;99.90;;;;;;4995360;28;20038;-77
2023/01/04 06:26:50;;;;;;;8.02;5.57;;;10.40;99.90;;;;;;4980398;28;20041;-76
2023/01/04 06:29:16;;;;;;;8.63;5.47;;;10.40;99.90;;;;;;4989333;28;20124;-76
2023/01/04 06:31:42;;;;;;;7.90;5.28;;;10.30;99.90;;;;;;4975670;28;20500;-75
2023/01/04 06:34:10;;;;;;;11.05;5.20;;;10.40;99.90;;;;;;4983756;28;20048;-75
2023/01/04 06:36:36;;;;;;;6.03;4.53;;;10.40;99.90;;;;;;5006088;28;20037;-76
2023/01/04 06:39:01;;;;;;;5.70;4.47;;;10.40;99.90;;;;;;4995919;28;20038;-76
2023/01/04 06:41:27;;;;;;;5.88;4.65;;;10.40;99.90;;;;;;4980474;28;20488;-76
2023/01/04 06:43:52;;;;;;;6.07;4.40;;;10.40;99.90;;;;;;4978397;28;20046;-77
2023/01/04 06:46:18;;;;;;;6.32;4.38;;;10.40;99.90;;;;;;4994185;28;20068;-77
2023/01/04 06:48:44;;;;;;;6.20;4.38;;;10.40;99.90;;;;;;4995665;28;20038;-76
2023/01/04 06:51:10;;;;;;;4.20;3.75;;;10.40;99.90;;;;;;4995501;28;20404;-76
2023/01/04 06:53:36;;;;;;;4.95;4.05;;;10.40;99.90;;;;;;4995127;28;20551;-76
2023/01/04 06:56:01;;;;;;;5.00;4.03;;;10.40;99.90;;;;;;4979950;28;20069;-78
2023/01/04 06:58:27;;;;;;;5.70;4.25;;;10.40;99.90;;;;;;4996053;28;20052;-76
2023/01/04 07:00:54;;;;;;;6.00;4.20;;;10.40;99.90;;;;;;4992992;28;20077;-76
2023/01/04 07:03:19;;;;;;;5.30;3.78;;;10.40;99.90;;;;;;4995644;28;20475;-76
2023/01/04 07:05:45;;;;;;;5.43;4.50;;;10.40;99.90;;;;;;4972266;28;20069;-77
2023/01/04 07:08:14;;;;;;;5.20;4.05;;;10.40;99.90;;;;;;4989451;28;20038;-75
2023/01/04 07:10:40;;;;;;;5.35;4.32;;;10.40;99.90;;;;;;4969339;28;20034;-76
2023/01/04 07:13:06;;;;;;;4.93;4.15;;;10.40;99.90;;;;;;4990524;28;20507;-77
2023/01/04 07:15:32;;;;;;;5.38;4.32;;;10.40;99.90;;;;;;4971550;28;20037;-77
2023/01/04 07:17:58;;;;;;;5.80;4.20;;;10.40;99.90;;;;;;4998126;28;20034;-76
2023/01/04 07:20:23;;;;;;;5.65;4.53;;;10.40;99.90;;;;;;4988334;28;20038;-77
2023/01/04 07:22:49;;;;;;;6.63;4.90;;;10.50;99.90;;;;;;5011567;28;20046;-76
2023/01/04 07:25:14;;;;;;;5.80;4.80;;;10.50;99.90;;;;;;5011318;28;20045;-76
2023/01/04 07:27:40;;;;;;;5.95;4.78;;;10.50;99.90;;;;;;5008808;28;20034;-76
2023/01/04 07:30:06;;;;;;;7.13;5.00;;;10.50;99.90;;;;;;4977178;28;20065;-75
2023/01/04 07:32:32;;;;;;;8.15;5.50;;;10.50;99.90;;;;;;4983626;28;20120;-76
2023/01/04 07:34:57;;;;;;;7.88;5.40;;;10.50;99.90;;;;;;4985927;28;20488;-77
2023/01/04 07:37:23;;;;;;;9.02;5.75;;;10.50;99.90;;;;;;4970358;28;20045;-78
2023/01/04 07:39:49;;;;;;;8.13;6.15;;;10.50;99.90;;;;;;4993442;28;20091;-77
2023/01/04 07:42:14;;;;;;;7.97;6.57;;;10.50;99.90;;;;;;4985516;28;20046;-78
2023/01/04 07:44:40;;;;;;;7.85;6.32;;;10.50;99.90;;;;;;4990830;28;20045;-76
2023/01/04 07:47:05;;;;;;;10.32;6.97;;;10.50;99.90;;;;;;4990151;28;20488;-78
2023/01/04 07:49:31;;;;;;;9.82;6.70;;;10.50;99.90;;;;;;4998353;28;20041;-77
2023/01/04 07:51:56;;;;;;;11.55;7.45;;;10.50;99.90;;;;;;4995004;28;20057;-76
2023/01/04 07:54:25;;;;;;;11.32;7.32;;;10.50;99.90;;;;;;4987928;28;20034;-77
2023/01/04 07:56:53;;;;;;;10.45;7.75;;;10.50;99.90;;;;;;4980307;28;20108;-78
2023/01/04 07:59:20;;;;;;;11.35;7.60;;;10.50;99.90;;;;;;4992876;28;20614;-76
2023/01/04 08:01:47;;;;;;;15.07;8.18;;;10.60;99.90;;;;;;4970687;28;20049;-77
2023/01/04 08:04:14;;;;;;;8.35;6.68;;;10.60;99.90;;;;;;4980830;28;20486;-78
2023/01/04 08:06:40;;;;;;;12.48;7.40;;;10.60;99.90;;;;;;4980846;28;20048;-77
2023/01/04 08:09:06;;;;;;;10.38;8.02;;;10.60;99.90;;;;;;4975404;28;20042;-77
2023/01/04 08:11:32;;;;;;;9.00;7.40;;;10.60;99.90;;;;;;4976559;28;20034;-78
2023/01/04 08:13:58;;;;;;;11.98;7.78;;;10.70;99.90;;;;;;4988183;28;20038;-79
2023/01/04 08:16:37;;;;;;;9.20;7.18;;;10.60;99.90;;;;;;4987423;28;20034;-79
2023/01/04 08:19:21;;;;;;;10.80;7.32;;;10.60;99.90;;;;;;4981799;28;20104;-80
2023/01/04 08:21:47;;;;;;;10.63;7.10;;;10.70;99.90;;;;;;4996938;28;20072;-79
2023/01/04 08:24:15;;;;;;;10.25;7.35;;;10.60;99.90;;;;;;4992419;28;20217;-82
2023/01/04 08:26:41;;;;;;;10.30;7.30;;;10.60;99.90;;;;;;5002657;28;20022;-82
2023/01/04 08:29:08;;;;;;;9.88;7.07;;;10.70;99.90;;;;;;4992756;28;20065;-82
2023/01/04 08:31:33;;;;;;;9.35;7.10;;;10.60;99.90;;;;;;5006574;28;20056;-81
2023/01/04 08:34:05;;;;;;;9.30;6.55;;;10.70;99.90;;;;;;4991063;28;20034;-81
2023/01/04 08:36:42;;;;;;;9.90;6.43;;;10.70;99.90;;;;;;4993951;28;20053;-82
2023/01/04 08:39:08;;;;;;;10.73;7.20;;;10.70;99.90;;;;;;4998839;28;20037;-82
2023/01/04 08:41:49;;;;;;;7.85;6.28;;;10.70;99.90;;;;;;4992844;28;20089;-83
2023/01/04 08:44:22;;;;;;;7.68;5.43;;;10.70;99.90;;;;;;5001656;28;20038;-83
2023/01/04 08:46:49;;;;;;;9.18;5.68;;;10.80;99.90;;;;;;4994023;28;20048;-81
2023/01/04 08:49:16;;;;;;;9.15;5.55;;;10.70;99.90;;;;;;5017348;28;20018;-83
2023/01/04 08:51:42;;;;;;;7.75;5.60;;;10.70;99.90;;;;;;5011631;28;20046;-77
2023/01/04 08:54:08;;;;;;;8.20;6.07;;;10.70;99.90;;;;;;5015515;28;20041;-80
2023/01/04 08:56:34;;;;;;;6.78;5.38;;;10.70;99.90;;;;;;5000946;28;20052;-79
2023/01/04 08:59:00;;;;;;;8.73;5.00;;;10.70;99.90;;;;;;5013798;28;20042;-79
2023/01/04 09:01:25;;;;;;;7.30;5.07;;;10.80;99.90;;;;;;4992299;28;20045;-79
2023/01/04 09:03:51;;;;;;;7.88;4.80;;;10.80;99.90;;;;;;4994276;28;20044;-80
2023/01/04 09:06:17;;;;;;;6.75;5.03;;;10.80;99.90;;;;;;4992957;28;20420;-81
2023/01/04 09:08:43;;;;;;;8.75;4.80;;;10.80;99.90;;;;;;4988046;28;20042;-81
2023/01/04 09:11:14;;;;;;;8.82;4.55;;;10.70;99.90;;;;;;5003150;28;20049;-77
2023/01/04 09:13:41;;;;;;;6.80;4.50;;;10.70;99.90;;;;;;5010956;28;20034;-79
2023/01/04 09:16:13;;;;;;;5.28;4.05;;;10.80;99.90;;;;;;5006924;28;20030;-81
2023/01/04 09:18:39;;;;;;;7.55;4.07;;;10.80;99.90;;;;;;4984853;28;20080;-80
2023/01/04 09:21:11;;;;;;;6.88;3.88;;;10.90;99.90;;;;;;4981959;28;20034;-80
2023/01/04 09:23:38;;;;;;;6.65;3.90;;;10.80;99.90;;;;;;5011666;28;20047;-82
2023/01/04 09:26:21;;;;;;;6.03;3.55;;;10.80;99.90;;;;;;4997254;28;20411;-78
2023/01/04 09:28:51;;;;;;;5.13;4.00;;;10.80;99.90;;;;;;4994177;28;20319;-79
2023/01/04 09:31:19;;;;;;;5.50;3.40;;;10.80;99.90;;;;;;4993236;28;20065;-81
2023/01/04 09:33:45;;;;;;;5.55;3.75;;;10.80;99.90;;;;;;4989275;28;20041;-78
2023/01/04 09:36:14;;;;;;;4.15;3.22;;;10.80;99.90;;;;;;4982433;28;20408;-80
2023/01/04 09:38:40;;;;;;;4.32;3.13;;;10.80;99.90;;;;;;5009670;28;20121;-82
2023/01/04 09:41:12;;;;;;;5.40;3.40;;;10.80;99.90;;;;;;4994710;28;20021;-80
2023/01/04 09:43:57;;;;;;;3.22;2.80;;;10.90;99.90;;;;;;4990949;28;20053;-80
2023/01/04 09:46:49;;;;;;;4.03;3.03;;;10.80;99.90;;;;;;4999661;28;20045;-80
2023/01/04 09:49:33;;;;;;;3.63;2.80;;;10.90;99.90;;;;;;4982802;28;20065;-81
2023/01/04 09:52:10;;;;;;;3.67;3.10;;;10.90;99.90;;;;;;4984016;28;20033;-81
2023/01/04 09:54:45;;;;;;;4.03;3.38;;;10.80;99.90;;;;;;5000719;28;20045;-80
2023/01/04 09:57:31;;;;;;;5.13;3.40;;;10.90;99.90;;;;;;4979538;28;20050;-80
2023/01/04 10:00:09;;;;;;;4.38;3.05;;;10.80;99.90;;;;;;4997558;28;20084;-80
2023/01/04 10:02:46;;;;;;;5.75;3.47;;;10.90;99.90;;;;;;4993754;28;20133;-79
2023/01/04 10:05:22;;;;;;;3.92;2.95;;;10.90;99.90;;;;;;4996910;28;20049;-81
2023/01/04 10:07:48;;;;;;;3.70;3.10;;;10.90;99.90;;;;;;4972950;28;20085;-82
2023/01/04 10:10:37;;;;;;;5.00;3.45;;;10.90;99.90;;;;;;4988096;28;20100;-79
2023/01/04 10:13:10;;;;;;;5.18;3.65;;;10.90;99.90;;;;;;4976099;28;20049;-80
2023/01/04 10:15:40;;;;;;;3.95;3.20;;;10.80;99.90;;;;;;4997899;28;20045;-79
2023/01/04 10:18:17;;;;;;;4.72;3.67;;;10.90;99.90;;;;;;4997025;28;20050;-77
2023/01/04 10:21:01;;;;;;;6.45;3.67;;;10.90;99.90;;;;;;4996180;28;20046;-79
2023/01/04 10:24:00;;;;;;;5.60;3.85;;;10.90;99.90;;;;;;4965101;28;20454;-80
2023/01/04 10:26:46;;;;;;;4.07;3.65;;;10.90;99.90;;;;;;4997178;28;20443;-77
2023/01/04 10:30:03;;;;;;;7.25;4.20;;;10.90;99.90;;;;;;4979830;28;20034;-79
2023/01/04 10:32:42;;;;;;;7.85;4.43;;;11.00;99.90;;;;;;4963444;28;20521;-78
2023/01/04 10:35:19;;;;;;;6.47;4.32;;;11.00;99.90;;;;;;4983590;28;20038;-78
2023/01/04 10:37:49;;;;;;;8.50;4.60;;;11.00;99.90;;;;;;4973063;28;20121;-77
2023/01/04 10:40:16;;;;;;;8.07;4.60;;;11.00;99.90;;;;;;4990736;28;20046;-77
2023/01/04 10:42:51;;;;;;;8.80;4.57;;;11.10;99.90;;;;;;4995869;28;20053;-78
2023/01/04 10:45:30;;;;;;;14.45;4.95;;;11.10;99.90;;;;;;4979987;28;20140;-78
2023/01/04 10:48:21;;;;;;;10.15;4.47;;;11.10;99.90;;;;;;4995483;28;20046;-77
2023/01/04 10:50:56;;;;;;;12.77;5.28;;;11.20;99.90;;;;;;4994120;28;20203;-78
2023/01/04 10:53:32;;;;;;;12.73;4.70;;;11.20;99.90;;;;;;4984468;28;20045;-78
2023/01/04 10:56:07;;;;;;;14.10;4.75;;;11.30;99.90;;;;;;4960326;28;20042;-78
2023/01/04 10:59:01;;;;;;;10.88;4.70;;;11.30;99.90;;;;;;4975377;28;20057;-77
2023/01/04 11:01:41;;;;;;;14.20;5.10;;;11.30;99.90;;;;;;5004768;28;20048;-77
2023/01/04 11:04:34;;;;;;;13.90;5.50;;;11.30;99.90;;;;;;4993702;28;20049;-78
2023/01/04 11:07:06;;;;;;;16.67;4.97;;;11.30;99.90;;;;;;4976049;28;20496;-77
2023/01/04 11:09:43;;;;;;;10.52;4.95;;;11.40;99.90;;;;;;4988634;28;20033;-78
2023/01/04 11:12:12;;;;;;;14.00;4.72;;;11.40;99.90;;;;;;4970296;28;20056;-78
2023/01/04 11:14:38;;;;;;;11.77;4.82;;;11.40;99.90;;;;;;4993653;28;20034;-81
2023/01/04 11:17:06;;;;;;;14.85;5.13;;;11.50;99.90;;;;;;4987734;28;20034;-79
2023/01/04 11:19:32;;;;;;;17.65;5.13;;;11.50;99.90;;;;;;4980184;28;20118;-81
2023/01/04 11:22:10;;;;;;;14.38;5.25;;;11.40;99.90;;;;;;5002144;28;20096;-80
2023/01/04 11:24:37;;;;;;;14.75;5.95;;;11.50;99.90;;;;;;4980071;28;20042;-77
2023/01/04 11:27:06;;;;;;;17.55;5.07;;;11.50;99.90;;;;;;5007132;28;20042;-78
2023/01/04 11:30:10;;;;;;;14.63;5.50;;;11.50;99.90;;;;;;4996724;28;20034;-77
2023/01/04 11:32:43;;;;;;;14.35;5.70;;;11.60;99.90;;;;;;4992570;28;20081;-77
2023/01/04 11:35:09;;;;;;;;;;;11.60;99.90;;;;;;4978825;28;20122;-77
2023/01/04 11:37:37;;;;;;;14.63;5.38;;;11.60;99.90;;;;;;4972221;28;20027;-76
2023/01/04 11:40:15;;;;;;;12.95;5.75;;;11.60;99.90;;;;;;4991882;28;20033;-76
2023/01/04 11:42:41;;;;;;;14.57;5.45;;;11.60;99.90;;;;;;4993119;28;20042;-76
2023/01/04 11:45:23;;;;;;;15.73;5.20;;;11.60;99.90;;;;;;4993809;28;20053;-76
2023/01/04 11:47:54;;;;;;;13.82;5.20;;;11.60;99.90;;;;;;4978732;28;20165;-77
2023/01/04 11:50:37;;;;;;;14.20;4.45;;;11.60;99.90;;;;;;4992837;28;20044;-77
2023/01/04 11:53:25;;;;;;;10.82;4.90;;;11.60;99.90;;;;;;4977504;28;20045;-77
2023/01/04 11:56:06;;;;;;;10.63;4.07;;;11.60;99.90;;;;;;4993911;28;20034;-77
2023/01/04 11:58:31;;;;;;;11.73;4.20;;;11.60;99.90;;;;;;4974097;28;20080;-77
2023/01/04 12:00:57;;;;;;;7.78;3.40;;;11.60;99.90;;;;;;4992318;28;20077;-76
2023/01/04 12:03:37;;;;;;;7.25;3.55;;;11.60;99.90;;;;;;4979163;28;20499;-78
2023/01/04 12:06:20;;;;;;;10.55;2.42;;;11.60;99.90;;;;;;4976327;28;20055;-76
2023/01/04 12:08:46;;;;;;;7.72;2.22;;;11.60;99.90;;;;;;4978815;28;20120;-76
2023/01/04 12:11:28;;;;;;;8.65;2.25;;;11.60;99.90;;;;;;4977114;28;20065;-74
2023/01/04 12:13:53;;;;;;;7.80;2.42;;;11.60;99.90;;;;;;4994998;28;20072;-75
2023/01/04 12:16:22;;;;;;;3.42;2.40;;;11.60;99.90;;;;;;4977457;28;20057;-76
2023/01/04 12:18:48;;;;;;;3.88;2.00;;;11.60;99.90;;;;;;4973013;28;20044;-75
2023/01/04 12:21:23;;;;;;;3.63;2.40;;;11.60;99.90;;;;;;4991179;28;20121;-76
2023/01/04 12:23:50;;;;;;;4.63;2.90;;;11.60;99.90;;;;;;4991478;28;20030;-76
2023/01/04 12:26:17;;;;;;;5.22;3.03;;;11.60;99.90;;;;;;4989336;28;20124;-77
2023/01/04 12:28:47;;;;;;;7.22;3.30;;;11.60;99.90;;;;;;4989290;28;20045;-76
2023/01/04 12:31:18;;;;;;;6.10;2.50;;;11.60;99.90;;;;;;4992940;28;20034;-76
2023/01/04 12:33:56;;;;;;;6.20;1.80;;;11.70;99.90;;;;;;4988811;28;20041;-76
2023/01/04 12:36:37;;;;;;;4.15;1.35;;;11.50;99.90;;;;;;4986119;28;20038;-75
2023/01/04 12:39:14;;;;;;;6.97;1.50;;;11.40;99.90;;;;;;4992101;28;20085;-77
2023/01/04 12:41:40;;;;;;;4.95;2.00;;;11.50;99.90;;;;;;4993093;28;20049;-76
2023/01/04 12:44:42;;;;;;;7.25;2.50;;;11.50;99.90;;;;;;4992061;28;20412;-75
2023/01/04 12:50:22;;;;;;;5.10;2.05;;;11.40;99.90;;;;;;4992167;28;20125;-76
2023/01/04 12:52:48;;;;;;;9.18;2.78;;;11.40;99.90;;;;;;4976958;28;20034;-75
2023/01/04 12:55:32;;;;;;;8.15;2.15;;;11.40;99.90;;;;;;4985017;28;20432;-75
2023/01/04 12:57:58;;;;;;;7.32;2.17;;;11.40;99.90;;;;;;4968225;28;20038;-75
2023/01/04 13:00:49;;;;;;;11.20;2.15;;;11.50;99.90;;;;;;4993365;28;20061;-76
2023/01/04 13:03:15;;;;;;;11.45;2.65;;;11.40;99.90;;;;;;4991055;28;20038;-75
2023/01/04 13:05:49;;;;;;;13.65;2.15;;;11.50;99.90;;;;;;4977437;28;20164;-75
2023/01/04 13:08:15;;;;;;;10.68;2.25;;;11.50;99.90;;;;;;4969442;28;20447;-75
2023/01/04 13:10:52;;;;;;;13.93;2.45;;;11.50;99.90;;;;;;4992674;28;20037;-75
2023/01/04 13:13:28;;;;;;;10.90;2.20;;;11.50;99.90;;;;;;4984836;28;20065;-76
2023/01/04 13:16:12;;;;;;;13.43;2.60;;;11.60;99.90;;;;;;4990641;28;20042;-76
2023/01/04 13:19:00;;;;;;;13.88;2.20;;;11.60;99.90;;;;;;4991650;28;20404;-75
2023/01/04 13:21:44;;;;;;;10.70;2.53;;;11.60;99.90;;;;;;4987900;28;20084;-76
2023/01/04 13:24:22;;;;;;;;;;;11.60;99.90;;;;;;4977825;28;20100;-75
2023/01/04 13:26:52;;;;;;;15.82;2.38;;;11.60;99.90;;;;;;4995247;28;19921;-76
2023/01/04 13:29:26;;;;;;;14.10;2.58;;;11.60;99.90;;;;;;4997119;28;20081;-76
2023/01/04 13:32:19;;;;;;;11.65;2.78;;;11.70;99.90;;;;;;4995702;28;20377;-77
2023/01/04 13:35:01;;;;;;;11.70;2.72;;;11.60;99.90;;;;;;4974478;28;20041;-75
2023/01/04 13:37:33;;;;;;;14.07;2.67;;;11.70;99.90;;;;;;4991815;28;20125;-73
2023/01/04 13:40:22;;;;;;;12.00;2.58;;;11.70;99.90;;;;;;4990161;28;20049;-77
2023/01/04 13:43:25;;;;;;;8.95;2.05;;;11.70;99.90;;;;;;4991663;28;20492;-78
2023/01/04 13:46:16;;;;;;;14.80;3.10;;;11.70;99.90;;;;;;4993954;28;20077;-78
2023/01/04 13:48:46;;;;;;;19.27;4.07;;;11.70;99.90;;;;;;4998135;28;20053;-77
2023/01/04 13:51:29;;;;;;;9.80;1.92;;;11.70;99.90;;;;;;4976120;28;20041;-78
2023/01/04 13:53:58;;;;;;;12.50;2.17;;;11.70;99.90;;;;;;4993734;28;20043;-78